SBCP/CAW METAR and TAF weather

Enter ICAO airport designator
Station Type Date Time Source
SBCP METAR 2021/05/11 21:00 UTC NOAA

SBCP 112100Z 06008KT CAVOK 22/18 Q1014


Station Type Date Time Source
SBCP Decoded METAR 2021/05/11 21:00 UTC NOAA

Campos, Brazil (SBCP) 21-45S 041-20W 11M
May 11, 2021 - 05:00 PM EDT / 2021.05.11 2100 UTC
Wind: from the ENE (060 degrees) at 9 MPH (8 KT):0
Visibility: greater than 7 mile(s):0
Temperature: 71 F (22 C)
Dew Point: 64 F (18 C)
Relative Humidity: 78%
Pressure (altimeter): 29.94 in. Hg (1014 hPa)
ob: SBCP 112100Z 06008KT CAVOK 22/18 Q1014
cycle: 21

Station Type Date Time Source
SBCP TAF 2021/05/12 06:43 UTC NOAA

TAF SBCP 120342Z 1206/1218 35003KT 9999 FEW020 TN18/1210Z TX28/1216Z
BECMG 1213/1215 02010KT SCT020
BECMG 1216/1218 04005KT FEW020
RMK PFV

Example: see airport list